sensor_id;sensor_type;location;lat;lon;timestamp;temperature;humidity
53264;DHT22;39153;52.680;6.172;2023-04-01T00:00:55;9.70;99.90
53264;DHT22;39153;52.680;6.172;2023-04-01T00:03:22;9.70;99.90
53264;DHT22;39153;52.680;6.172;2023-04-01T00:05:48;9.70;99.90
53264;DHT22;39153;52.680;6.172;2023-04-01T00:08:14;10.20;99.90
53264;DHT22;39153;52.680;6.172;2023-04-01T00:10:40;9.70;99.90
53264;DHT22;39153;52.680;6.172;2023-04-01T00:13:06;9.60;99.90
53264;DHT22;39153;52.680;6.172;2023-04-01T00:15:32;9.60;99.90
53264;DHT22;39153;52.680;6.172;2023-04-01T00:17:59;10.00;99.90
53264;DHT22;39153;52.680;6.172;2023-04-01T00:20:26;10.20;99.90
53264;DHT22;39153;52.680;6.172;2023-04-01T00:22:52;9.60;99.90
53264;DHT22;39153;52.680;6.172;2023-04-01T00:25:18;9.70;99.90
53264;DHT22;39153;52.680;6.172;2023-04-01T00:27:44;10.10;99.90
53264;DHT22;39153;52.680;6.172;2023-04-01T00:30:10;10.10;99.90
53264;DHT22;39153;52.680;6.172;2023-04-01T00:32:36;9.80;99.90
53264;DHT22;39153;52.680;6.172;2023-04-01T00:35:03;9.70;99.90
53264;DHT22;39153;52.680;6.172;2023-04-01T00:37:29;10.10;99.90
53264;DHT22;39153;52.680;6.172;2023-04-01T00:39:55;9.90;99.90
53264;DHT22;39153;52.680;6.172;2023-04-01T00:42:20;9.50;99.90
53264;DHT22;39153;52.680;6.172;2023-04-01T00:44:51;10.20;99.90
53264;DHT22;39153;52.680;6.172;2023-04-01T00:47:18;10.00;99.90
53264;DHT22;39153;52.680;6.172;2023-04-01T00:49:46;9.80;99.90
53264;DHT22;39153;52.680;6.172;2023-04-01T00:52:17;9.80;99.90
53264;DHT22;39153;52.680;6.172;2023-04-01T00:54:46;10.20;99.90
53264;DHT22;39153;52.680;6.172;2023-04-01T00:59:50;10.10;99.90
53264;DHT22;39153;52.680;6.172;2023-04-01T01:02:18;9.70;99.90
53264;DHT22;39153;52.680;6.172;2023-04-01T01:04:45;9.90;99.90
53264;DHT22;39153;52.680;6.172;2023-04-01T01:10:19;10.30;99.90
53264;DHT22;39153;52.680;6.172;2023-04-01T01:15:44;9.70;99.90
53264;DHT22;39153;52.680;6.172;2023-04-01T01:18:15;10.20;99.90
53264;DHT22;39153;52.680;6.172;2023-04-01T01:37:22;9.50;99.90
53264;DHT22;39153;52.680;6.172;2023-04-01T01:39:55;10.30;99.90
53264;DHT22;39153;52.680;6.172;2023-04-01T01:42:22;9.70;99.90
53264;DHT22;39153;52.680;6.172;2023-04-01T01:44:50;9.60;99.90
53264;DHT22;39153;52.680;6.172;2023-04-01T01:47:19;9.50;99.90
53264;DHT22;39153;52.680;6.172;2023-04-01T01:49:46;10.00;99.90
53264;DHT22;39153;52.680;6.172;2023-04-01T01:52:12;9.50;99.90
53264;DHT22;39153;52.680;6.172;2023-04-01T01:54:52;9.70;99.90
53264;DHT22;39153;52.680;6.172;2023-04-01T01:57:23;9.50;99.90
53264;DHT22;39153;52.680;6.172;2023-04-01T01:59:54;10.10;99.90
53264;DHT22;39153;52.680;6.172;2023-04-01T02:02:22;9.50;99.90
53264;DHT22;39153;52.680;6.172;2023-04-01T02:04:49;9.80;99.90
53264;DHT22;39153;52.680;6.172;2023-04-01T02:07:24;10.00;99.90
53264;DHT22;39153;52.680;6.172;2023-04-01T02:09:51;10.30;99.90
53264;DHT22;39153;52.680;6.172;2023-04-01T02:12:19;10.10;99.90
53264;DHT22;39153;52.680;6.172;2023-04-01T02:14:51;10.00;99.90
53264;DHT22;39153;52.680;6.172;2023-04-01T02:17:26;9.60;99.90
53264;DHT22;39153;52.680;6.172;2023-04-01T02:20:01;9.70;99.90
53264;DHT22;39153;52.680;6.172;2023-04-01T02:22:33;10.00;99.90
53264;DHT22;39153;52.680;6.172;2023-04-01T02:25:05;9.60;99.90
53264;DHT22;39153;52.680;6.172;2023-04-01T02:27:32;10.00;99.90
53264;DHT22;39153;52.680;6.172;2023-04-01T02:29:57;10.10;99.90
53264;DHT22;39153;52.680;6.172;2023-04-01T02:32:25;9.50;99.90
53264;DHT22;39153;52.680;6.172;2023-04-01T02:34:52;10.10;99.90
53264;DHT22;39153;52.680;6.172;2023-04-01T02:37:18;10.10;99.90
53264;DHT22;39153;52.680;6.172;2023-04-01T02:39:44;9.70;99.90
53264;DHT22;39153;52.680;6.172;2023-04-01T02:42:10;9.80;99.90
53264;DHT22;39153;52.680;6.172;2023-04-01T02:44:36;9.70;99.90
53264;DHT22;39153;52.680;6.172;2023-04-01T02:47:02;9.70;99.90
53264;DHT22;39153;52.680;6.172;2023-04-01T02:49:28;10.10;99.90
53264;DHT22;39153;52.680;6.172;2023-04-01T02:51:53;10.20;99.90
53264;DHT22;39153;52.680;6.172;2023-04-01T02:54:19;9.60;99.90
53264;DHT22;39153;52.680;6.172;2023-04-01T02:56:45;9.70;99.90
53264;DHT22;39153;52.680;6.172;2023-04-01T02:59:11;9.90;99.90
53264;DHT22;39153;52.680;6.172;2023-04-01T03:01:37;9.40;99.90
53264;DHT22;39153;52.680;6.172;2023-04-01T03:04:03;10.20;99.90
53264;DHT22;39153;52.680;6.172;2023-04-01T03:06:29;10.00;99.90
53264;DHT22;39153;52.680;6.172;2023-04-01T03:08:54;10.40;99.90
53264;DHT22;39153;52.680;6.172;2023-04-01T03:11:20;9.60;99.90
53264;DHT22;39153;52.680;6.172;2023-04-01T03:13:46;9.60;99.90
53264;DHT22;39153;52.680;6.172;2023-04-01T03:16:12;10.20;99.90
53264;DHT22;39153;52.680;6.172;2023-04-01T03:18:38;10.00;99.90
53264;DHT22;39153;52.680;6.172;2023-04-01T03:21:18;9.50;99.90
53264;DHT22;39153;52.680;6.172;2023-04-01T03:23:44;9.70;99.90
53264;DHT22;39153;52.680;6.172;2023-04-01T03:26:10;10.20;99.90
53264;DHT22;39153;52.680;6.172;2023-04-01T03:28:36;10.30;99.90
53264;DHT22;39153;52.680;6.172;2023-04-01T03:31:02;10.20;99.90
53264;DHT22;39153;52.680;6.172;2023-04-01T03:33:28;9.80;99.90
53264;DHT22;39153;52.680;6.172;2023-04-01T03:35:53;9.70;99.90
53264;DHT22;39153;52.680;6.172;2023-04-01T03:38:19;10.20;99.90
53264;DHT22;39153;52.680;6.172;2023-04-01T03:40:45;9.70;99.90
53264;DHT22;39153;52.680;6.172;2023-04-01T03:43:11;9.70;99.90
53264;DHT22;39153;52.680;6.172;2023-04-01T03:45:50;10.00;99.90
53264;DHT22;39153;52.680;6.172;2023-04-01T03:48:17;9.90;99.90
53264;DHT22;39153;52.680;6.172;2023-04-01T03:50:43;10.00;99.90
53264;DHT22;39153;52.680;6.172;2023-04-01T03:53:10;9.50;99.90
53264;DHT22;39153;52.680;6.172;2023-04-01T03:55:36;9.50;99.90
53264;DHT22;39153;52.680;6.172;2023-04-01T03:58:05;9.70;99.90
53264;DHT22;39153;52.680;6.172;2023-04-01T04:00:31;9.80;99.90
53264;DHT22;39153;52.680;6.172;2023-04-01T04:02:57;10.00;99.90
53264;DHT22;39153;52.680;6.172;2023-04-01T04:05:24;10.20;99.90
53264;DHT22;39153;52.680;6.172;2023-04-01T04:07:50;10.10;99.90
53264;DHT22;39153;52.680;6.172;2023-04-01T04:10:16;10.20;99.90
53264;DHT22;39153;52.680;6.172;2023-04-01T04:12:42;10.40;99.90
53264;DHT22;39153;52.680;6.172;2023-04-01T04:15:09;9.50;99.90
53264;DHT22;39153;52.680;6.172;2023-04-01T04:17:34;10.20;99.90
53264;DHT22;39153;52.680;6.172;2023-04-01T04:20:00;10.40;99.90
53264;DHT22;39153;52.680;6.172;2023-04-01T04:22:26;10.10;99.90
53264;DHT22;39153;52.680;6.172;2023-04-01T04:24:52;10.30;99.90
53264;DHT22;39153;52.680;6.172;2023-04-01T04:27:18;9.70;99.90
53264;DHT22;39153;52.680;6.172;2023-04-01T04:29:44;9.70;99.90
53264;DHT22;39153;52.680;6.172;2023-04-01T04:32:09;10.00;99.90
53264;DHT22;39153;52.680;6.172;2023-04-01T04:34:35;10.30;99.90
53264;DHT22;39153;52.680;6.172;2023-04-01T04:37:01;9.80;99.90
53264;DHT22;39153;52.680;6.172;2023-04-01T04:39:26;9.90;99.90
53264;DHT22;39153;52.680;6.172;2023-04-01T04:41:52;10.20;99.90
53264;DHT22;39153;52.680;6.172;2023-04-01T04:44:18;9.90;99.90
53264;DHT22;39153;52.680;6.172;2023-04-01T04:46:43;10.10;99.90
53264;DHT22;39153;52.680;6.172;2023-04-01T04:49:09;9.80;99.90
53264;DHT22;39153;52.680;6.172;2023-04-01T04:51:35;9.80;99.90
53264;DHT22;39153;52.680;6.172;2023-04-01T04:54:02;10.50;99.90
53264;DHT22;39153;52.680;6.172;2023-04-01T04:56:28;9.80;99.90
53264;DHT22;39153;52.680;6.172;2023-04-01T04:58:54;10.40;99.90
53264;DHT22;39153;52.680;6.172;2023-04-01T05:01:20;9.60;99.90
53264;DHT22;39153;52.680;6.172;2023-04-01T05:03:46;10.20;99.90
53264;DHT22;39153;52.680;6.172;2023-04-01T05:06:14;10.50;99.90
53264;DHT22;39153;52.680;6.172;2023-04-01T05:08:41;10.00;99.90
53264;DHT22;39153;52.680;6.172;2023-04-01T05:11:14;10.40;99.90
53264;DHT22;39153;52.680;6.172;2023-04-01T05:13:41;10.20;99.90
53264;DHT22;39153;52.680;6.172;2023-04-01T05:16:12;10.30;99.90
53264;DHT22;39153;52.680;6.172;2023-04-01T05:18:39;9.80;99.90
53264;DHT22;39153;52.680;6.172;2023-04-01T05:21:06;9.70;99.90
53264;DHT22;39153;52.680;6.172;2023-04-01T05:23:32;9.60;99.90
53264;DHT22;39153;52.680;6.172;2023-04-01T05:25:58;10.10;99.90
53264;DHT22;39153;52.680;6.172;2023-04-01T05:28:24;10.20;99.90
53264;DHT22;39153;52.680;6.172;2023-04-01T05:30:50;9.90;99.90
53264;DHT22;39153;52.680;6.172;2023-04-01T05:33:15;9.90;99.90
53264;DHT22;39153;52.680;6.172;2023-04-01T05:35:41;9.70;99.90
53264;DHT22;39153;52.680;6.172;2023-04-01T05:38:07;10.50;99.90
53264;DHT22;39153;52.680;6.172;2023-04-01T05:40:33;10.30;99.90
53264;DHT22;39153;52.680;6.172;2023-04-01T05:42:59;10.40;99.90
53264;DHT22;39153;52.680;6.172;2023-04-01T05:45:26;9.80;99.90
53264;DHT22;39153;52.680;6.172;2023-04-01T05:47:51;10.10;99.90
53264;DHT22;39153;52.680;6.172;2023-04-01T05:50:17;10.30;99.90
53264;DHT22;39153;52.680;6.172;2023-04-01T05:52:43;10.50;99.90
53264;DHT22;39153;52.680;6.172;2023-04-01T05:55:10;9.90;99.90
53264;DHT22;39153;52.680;6.172;2023-04-01T05:57:36;9.60;99.90
53264;DHT22;39153;52.680;6.172;2023-04-01T06:00:02;9.60;99.90
53264;DHT22;39153;52.680;6.172;2023-04-01T06:02:28;10.00;99.90
53264;DHT22;39153;52.680;6.172;2023-04-01T06:05:12;10.50;99.90
53264;DHT22;39153;52.680;6.172;2023-04-01T06:07:39;10.20;99.90
53264;DHT22;39153;52.680;6.172;2023-04-01T06:10:16;10.00;99.90
53264;DHT22;39153;52.680;6.172;2023-04-01T06:39:48;10.70;99.90
53264;DHT22;39153;52.680;6.172;2023-04-01T06:51:14;10.60;99.90
53264;DHT22;39153;52.680;6.172;2023-04-01T06:54:07;10.70;99.90
53264;DHT22;39153;52.680;6.172;2023-04-01T06:56:37;10.90;99.90
53264;DHT22;39153;52.680;6.172;2023-04-01T06:59:17;10.90;99.90
53264;DHT22;39153;52.680;6.172;2023-04-01T07:01:52;10.10;99.90
53264;DHT22;39153;52.680;6.172;2023-04-01T07:04:23;10.20;99.90
53264;DHT22;39153;52.680;6.172;2023-04-01T07:07:05;11.00;99.90
53264;DHT22;39153;52.680;6.172;2023-04-01T07:09:41;10.20;99.90
53264;DHT22;39153;52.680;6.172;2023-04-01T07:12:19;10.80;99.90
53264;DHT22;39153;52.680;6.172;2023-04-01T07:14:49;10.80;99.90
53264;DHT22;39153;52.680;6.172;2023-04-01T07:17:20;11.00;99.90
53264;DHT22;39153;52.680;6.172;2023-04-01T07:20:13;11.00;99.90
53264;DHT22;39153;52.680;6.172;2023-04-01T07:22:48;10.20;99.90
53264;DHT22;39153;52.680;6.172;2023-04-01T07:25:21;11.00;99.90
53264;DHT22;39153;52.680;6.172;2023-04-01T07:27:48;11.10;99.90
53264;DHT22;39153;52.680;6.172;2023-04-01T07:30:16;10.40;99.90
53264;DHT22;39153;52.680;6.172;2023-04-01T07:35:38;10.40;99.90
53264;DHT22;39153;52.680;6.172;2023-04-01T07:38:19;10.70;99.90
53264;DHT22;39153;52.680;6.172;2023-04-01T07:46:15;11.50;99.90
53264;DHT22;39153;52.680;6.172;2023-04-01T07:51:59;11.00;99.90
53264;DHT22;39153;52.680;6.172;2023-04-01T07:57:12;10.80;99.90
53264;DHT22;39153;52.680;6.172;2023-04-01T07:59:46;11.70;99.90
53264;DHT22;39153;52.680;6.172;2023-04-01T08:05:28;11.70;99.90
53264;DHT22;39153;52.680;6.172;2023-04-01T08:08:29;11.20;99.90
53264;DHT22;39153;52.680;6.172;2023-04-01T08:19:35;11.70;99.90
53264;DHT22;39153;52.680;6.172;2023-04-01T08:22:41;11.90;99.90
53264;DHT22;39153;52.680;6.172;2023-04-01T08:25:15;12.00;99.90
53264;DHT22;39153;52.680;6.172;2023-04-01T08:27:45;12.00;99.90
53264;DHT22;39153;52.680;6.172;2023-04-01T08:30:19;12.20;99.90
53264;DHT22;39153;52.680;6.172;2023-04-01T08:33:09;12.20;99.90
53264;DHT22;39153;52.680;6.172;2023-04-01T08:38:31;11.50;99.90
53264;DHT22;39153;52.680;6.172;2023-04-01T08:53:03;11.70;99.90
53264;DHT22;39153;52.680;6.172;2023-04-01T08:56:23;11.60;99.90
53264;DHT22;39153;52.680;6.172;2023-04-01T09:04:23;11.60;99.90
53264;DHT22;39153;52.680;6.172;2023-04-01T09:12:25;12.10;99.90
53264;DHT22;39153;52.680;6.172;2023-04-01T09:25:58;12.10;99.90
53264;DHT22;39153;52.680;6.172;2023-04-01T09:28:34;12.20;99.90
53264;DHT22;39153;52.680;6.172;2023-04-01T09:37:17;12.50;99.90
53264;DHT22;39153;52.680;6.172;2023-04-01T09:42:33;12.40;99.90
53264;DHT22;39153;52.680;6.172;2023-04-01T09:50:52;12.30;99.90
53264;DHT22;39153;52.680;6.172;2023-04-01T09:53:33;11.90;99.90
53264;DHT22;39153;52.680;6.172;2023-04-01T10:02:32;11.90;99.90
53264;DHT22;39153;52.680;6.172;2023-04-01T10:14:15;11.80;99.90
53264;DHT22;39153;52.680;6.172;2023-04-01T10:30:39;12.10;99.90
53264;DHT22;39153;52.680;6.172;2023-04-01T10:38:42;12.60;99.90
53264;DHT22;39153;52.680;6.172;2023-04-01T10:50:25;12.40;99.90
53264;DHT22;39153;52.680;6.172;2023-04-01T10:54:02;12.40;99.90
53264;DHT22;39153;52.680;6.172;2023-04-01T10:59:36;13.10;99.90
53264;DHT22;39153;52.680;6.172;2023-04-01T11:10:30;13.00;99.90
53264;DHT22;39153;52.680;6.172;2023-04-01T11:22:01;13.10;99.90
53264;DHT22;39153;52.680;6.172;2023-04-01T11:25:05;13.40;99.90
53264;DHT22;39153;52.680;6.172;2023-04-01T11:39:33;13.80;99.90
53264;DHT22;39153;52.680;6.172;2023-04-01T11:56:51;12.50;99.90
53264;DHT22;39153;52.680;6.172;2023-04-01T12:02:20;12.50;99.90
53264;DHT22;39153;52.680;6.172;2023-04-01T12:08:05;12.30;99.90
53264;DHT22;39153;52.680;6.172;2023-04-01T12:11:06;12.10;99.90
53264;DHT22;39153;52.680;6.172;2023-04-01T12:16:59;11.90;99.90
53264;DHT22;39153;52.680;6.172;2023-04-01T12:19:55;11.90;99.90
53264;DHT22;39153;52.680;6.172;2023-04-01T12:34:12;11.40;99.90
53264;DHT22;39153;52.680;6.172;2023-04-01T12:37:03;11.40;99.90
53264;DHT22;39153;52.680;6.172;2023-04-01T12:40:06;11.30;99.90
53264;DHT22;39153;52.680;6.172;2023-04-01T12:45:32;11.50;99.90
53264;DHT22;39153;52.680;6.172;2023-04-01T12:59:27;11.60;99.90
53264;DHT22;39153;52.680;6.172;2023-04-01T13:05:15;11.80;99.90
53264;DHT22;39153;52.680;6.172;2023-04-01T13:08:00;11.80;99.90
53264;DHT22;39153;52.680;6.172;2023-04-01T13:10:48;11.60;99.90
53264;DHT22;39153;52.680;6.172;2023-04-01T13:16:13;11.90;99.90
53264;DHT22;39153;52.680;6.172;2023-04-01T13:18:54;11.70;99.90
53264;DHT22;39153;52.680;6.172;2023-04-01T13:29:38;11.40;99.90
53264;DHT22;39153;52.680;6.172;2023-04-01T13:37:48;11.20;99.90
53264;DHT22;39153;52.680;6.172;2023-04-01T13:40:33;11.60;99.90
53264;DHT22;39153;52.680;6.172;2023-04-01T13:43:15;11.20;99.90
53264;DHT22;39153;52.680;6.172;2023-04-01T13:45:58;11.50;99.90
53264;DHT22;39153;52.680;6.172;2023-04-01T13:48:43;11.10;99.90
53264;DHT22;39153;52.680;6.172;2023-04-01T13:57:07;11.20;99.90
53264;DHT22;39153;52.680;6.172;2023-04-01T13:59:49;11.10;99.90
53264;DHT22;39153;52.680;6.172;2023-04-01T14:19:29;11.20;99.90
53264;DHT22;39153;52.680;6.172;2023-04-01T14:22:40;11.10;99.90
53264;DHT22;39153;52.680;6.172;2023-04-01T14:30:53;11.30;99.90
53264;DHT22;39153;52.680;6.172;2023-04-01T14:33:28;11.00;99.90
53264;DHT22;39153;52.680;6.172;2023-04-01T14:47:51;10.80;99.90
53264;DHT22;39153;52.680;6.172;2023-04-01T14:50:26;10.70;99.90
53264;DHT22;39153;52.680;6.172;2023-04-01T14:53:11;10.70;99.90
53264;DHT22;39153;52.680;6.172;2023-04-01T15:11:38;10.70;99.90
53264;DHT22;39153;52.680;6.172;2023-04-01T15:14:29;10.70;99.90
53264;DHT22;39153;52.680;6.172;2023-04-01T15:17:22;10.60;99.90
53264;DHT22;39153;52.680;6.172;2023-04-01T15:25:37;10.50;99.90
53264;DHT22;39153;52.680;6.172;2023-04-01T15:31:12;10.40;99.90
53264;DHT22;39153;52.680;6.172;2023-04-01T15:36:47;10.40;99.90
53264;DHT22;39153;52.680;6.172;2023-04-01T15:42:25;10.60;99.90
53264;DHT22;39153;52.680;6.172;2023-04-01T15:56:07;10.50;99.90
53264;DHT22;39153;52.680;6.172;2023-04-01T16:01:22;10.30;99.90
53264;DHT22;39153;52.680;6.172;2023-04-01T16:06:41;10.20;99.90
53264;DHT22;39153;52.680;6.172;2023-04-01T16:20:25;9.90;99.90
53264;DHT22;39153;52.680;6.172;2023-04-01T16:23:02;9.90;99.90
53264;DHT22;39153;52.680;6.172;2023-04-01T16:30:58;9.80;99.90
53264;DHT22;39153;52.680;6.172;2023-04-01T16:33:46;9.90;99.90
53264;DHT22;39153;52.680;6.172;2023-04-01T16:39:22;9.70;99.90
53264;DHT22;39153;52.680;6.172;2023-04-01T16:44:55;9.70;99.90
53264;DHT22;39153;52.680;6.172;2023-04-01T16:47:45;9.70;99.90
53264;DHT22;39153;52.680;6.172;2023-04-01T16:50:23;9.80;99.90
53264;DHT22;39153;52.680;6.172;2023-04-01T16:58:35;9.80;99.90
53264;DHT22;39153;52.680;6.172;2023-04-01T17:01:05;9.60;99.90
53264;DHT22;39153;52.680;6.172;2023-04-01T17:03:45;9.60;99.90
53264;DHT22;39153;52.680;6.172;2023-04-01T17:30:46;9.40;99.90
53264;DHT22;39153;52.680;6.172;2023-04-01T17:42:08;9.40;99.90
53264;DHT22;39153;52.680;6.172;2023-04-01T17:50:17;9.00;99.90
53264;DHT22;39153;52.680;6.172;2023-04-01T17:56:09;9.10;99.90
53264;DHT22;39153;52.680;6.172;2023-04-01T17:59:05;9.10;99.90
53264;DHT22;39153;52.680;6.172;2023-04-01T18:01:57;8.80;99.90
53264;DHT22;39153;52.680;6.172;2023-04-01T18:04:42;8.90;99.90
53264;DHT22;39153;52.680;6.172;2023-04-01T18:07:24;8.70;99.90
53264;DHT22;39153;52.680;6.172;2023-04-01T18:13:08;8.90;99.90
53264;DHT22;39153;52.680;6.172;2023-04-01T18:16:12;8.70;99.90
53264;DHT22;39153;52.680;6.172;2023-04-01T18:26:40;8.60;99.90
53264;DHT22;39153;52.680;6.172;2023-04-01T18:29:39;8.40;99.90
53264;DHT22;39153;52.680;6.172;2023-04-01T18:32:26;8.50;99.90
53264;DHT22;39153;52.680;6.172;2023-04-01T18:35:16;8.40;99.90
53264;DHT22;39153;52.680;6.172;2023-04-01T18:41:32;8.40;99.90
53264;DHT22;39153;52.680;6.172;2023-04-01T18:49:40;8.40;99.90
53264;DHT22;39153;52.680;6.172;2023-04-01T18:51:52;8.30;99.90
53264;DHT22;39153;52.680;6.172;2023-04-01T18:57:18;8.40;99.90
53264;DHT22;39153;52.680;6.172;2023-04-01T18:59:55;8.30;99.90
53264;DHT22;39153;52.680;6.172;2023-04-01T19:05:00;8.30;99.90
53264;DHT22;39153;52.680;6.172;2023-04-01T19:12:56;8.20;99.90
53264;DHT22;39153;52.680;6.172;2023-04-01T19:18:46;7.90;99.90
53264;DHT22;39153;52.680;6.172;2023-04-01T19:26:42;7.90;99.90
53264;DHT22;39153;52.680;6.172;2023-04-01T19:35:23;7.70;99.90
53264;DHT22;39153;52.680;6.172;2023-04-01T19:46:46;7.70;99.90
53264;DHT22;39153;52.680;6.172;2023-04-01T19:55:17;7.60;99.90
53264;DHT22;39153;52.680;6.172;2023-04-01T20:10:04;7.50;99.90
53264;DHT22;39153;52.680;6.172;2023-04-01T20:14:49;7.50;99.90
53264;DHT22;39153;52.680;6.172;2023-04-01T20:17:19;7.60;99.90
53264;DHT22;39153;52.680;6.172;2023-04-01T20:20:00;7.60;99.90
53264;DHT22;39153;52.680;6.172;2023-04-01T20:25:03;7.50;99.90
53264;DHT22;39153;52.680;6.172;2023-04-01T20:27:38;7.40;99.90
53264;DHT22;39153;52.680;6.172;2023-04-01T20:33:32;7.30;99.90
53264;DHT22;39153;52.680;6.172;2023-04-01T20:50:06;7.20;99.90
53264;DHT22;39153;52.680;6.172;2023-04-01T20:52:56;7.40;99.90
53264;DHT22;39153;52.680;6.172;2023-04-01T21:06:44;7.30;99.90
53264;DHT22;39153;52.680;6.172;2023-04-01T21:12:19;7.20;99.90
53264;DHT22;39153;52.680;6.172;2023-04-01T21:22:52;6.90;99.90
53264;DHT22;39153;52.680;6.172;2023-04-01T21:28:04;7.10;99.90
53264;DHT22;39153;52.680;6.172;2023-04-01T21:41:40;6.80;99.90
53264;DHT22;39153;52.680;6.172;2023-04-01T21:49:43;6.70;99.90
53264;DHT22;39153;52.680;6.172;2023-04-01T22:03:25;6.90;99.90
53264;DHT22;39153;52.680;6.172;2023-04-01T22:06:06;6.60;99.90
53264;DHT22;39153;52.680;6.172;2023-04-01T22:08:55;6.60;99.90
53264;DHT22;39153;52.680;6.172;2023-04-01T22:11:46;6.70;99.90
53264;DHT22;39153;52.680;6.172;2023-04-01T22:17:30;6.50;99.90
53264;DHT22;39153;52.680;6.172;2023-04-01T22:20:27;6.60;99.90
53264;DHT22;39153;52.680;6.172;2023-04-01T22:23:08;6.50;99.90
53264;DHT22;39153;52.680;6.172;2023-04-01T22:25:59;6.80;99.90
53264;DHT22;39153;52.680;6.172;2023-04-01T22:31:02;6.60;99.90
53264;DHT22;39153;52.680;6.172;2023-04-01T22:43:54;6.40;99.90
53264;DHT22;39153;52.680;6.172;2023-04-01T22:49:27;6.50;99.90
53264;DHT22;39153;52.680;6.172;2023-04-01T22:52:08;6.40;99.90
53264;DHT22;39153;52.680;6.172;2023-04-01T22:54:45;6.50;99.90
53264;DHT22;39153;52.680;6.172;2023-04-01T22:57:49;6.50;99.90
53264;DHT22;39153;52.680;6.172;2023-04-01T23:00:27;6.30;99.90
53264;DHT22;39153;52.680;6.172;2023-04-01T23:03:14;6.40;99.90
53264;DHT22;39153;52.680;6.172;2023-04-01T23:05:48;6.30;99.90
53264;DHT22;39153;52.680;6.172;2023-04-01T23:11:02;6.30;99.90
53264;DHT22;39153;52.680;6.172;2023-04-01T23:13:34;6.40;99.90
53264;DHT22;39153;52.680;6.172;2023-04-01T23:16:03;6.20;99.90
53264;DHT22;39153;52.680;6.172;2023-04-01T23:21:27;6.50;99.90
53264;DHT22;39153;52.680;6.172;2023-04-01T23:24:14;6.30;99.90
53264;DHT22;39153;52.680;6.172;2023-04-01T23:27:14;6.30;99.90
53264;DHT22;39153;52.680;6.172;2023-04-01T23:29:43;6.10;99.90
53264;DHT22;39153;52.680;6.172;2023-04-01T23:32:24;6.30;99.90
53264;DHT22;39153;52.680;6.172;2023-04-01T23:34:54;6.50;99.90
53264;DHT22;39153;52.680;6.172;2023-04-01T23:37:21;6.30;99.90
53264;DHT22;39153;52.680;6.172;2023-04-01T23:39:52;6.10;99.90
53264;DHT22;39153;52.680;6.172;2023-04-01T23:42:28;6.50;99.90
53264;DHT22;39153;52.680;6.172;2023-04-01T23:45:00;6.10;99.90
53264;DHT22;39153;52.680;6.172;2023-04-01T23:47:30;6.10;99.90
53264;DHT22;39153;52.680;6.172;2023-04-01T23:50:03;6.20;99.90
53264;DHT22;39153;52.680;6.172;2023-04-01T23:52:35;6.20;99.90
53264;DHT22;39153;52.680;6.172;2023-04-01T23:57:32;5.90;99.90
